默认 日期 大小 文件数 浏览量 最新下载 xml
headspace磁力链接相关资源由用户搜索指令自动获取,结果来源于网络,本站不存储任何资料,亦不承担任何责任,请于24小时内删除,搜索到248个磁力,用时0ms。
    {"headspace-aXXo.nfo": 6635, "Headspace[2005]DvDrip.AC3[Eng]-aXXo.avi": 733845504}
创建时间: 2018-12-11 17:03:56 大小:699.86 MB 文件数量:2 热度:7 最近下载:2023-02-25 19:40:02
    ... .x264-SADPANDA.idx": 42466, "Headspace.2005.DC.720p.BluRay.x264 ... 4337664}, "RARBG.txt": 30, "Headspace.2005.DC.720p.BluRay.x264 ... -SADPANDA.mkv": 3510877692, "headspace.2005.dc.720p.bluray.x264 ... -sadpanda.jpg": 3142, "headspace.2005.dc.720p.bluray.x264 ...
创建时间: 2018-12-26 20:02:25 大小:3.27 GB 文件数量:6 热度:7 最近下载:2023-04-16 04:10:06
    ... ": {"ross.noble.the.headspace.cowboy.tour.three.dvdrip.xvid ... }, "Sample": {"ross.noble.the.headspace.cowboy.tour.three.dvdrip.xvid ... 473, "ross.noble.the.headspace.cowboy.tour.three.dvdrip.xvid ... 366964736, "ross.noble.the.headspace.cowboy.tour.three.dvdrip.xvid ...
创建时间: 2019-03-20 17:16:27 大小:358.55 MB 文件数量:6 热度:7 最近下载:2023-04-22 20:40:05
    {"Cover.jpg": 86751, "07 - Hero.m4a": 9165551, "08 - COMA.m4a": 7739917, "06 - Flojo.m4a": 9161492, "02 - Home Soon.m4a": 10545209, "10 - Blue Wall.m4a": 7100202, "09 - Rank Rider.m4a": 9986891, "01 - The Realest.m4a": 11073542, "05 - Made to Last.m4a": ...
创建时间: 2019-05-26 15:38:52 大小:111.43 MB 文件数量:16 热度:7 最近下载:2025-03-12 02:50:02
    {"07 - Hero.mp3": 8261657, "08 - COMA.mp3": 7054800, "06 - Flojo.mp3": 8535422, "02 - Home Soon.mp3": 9887528, "10 - Blue Wall.mp3": 6546990, "09 - Rank Rider.mp3": 9046387, "01 - The Realest.mp3": 9711989, "05 - Made to Last.mp3": 7791469, "13 - Slow Me ...
创建时间: 2019-06-01 02:25:29 大小:102.19 MB 文件数量:13 热度:7 最近下载:2025-03-04 04:58:03
    {"Visit ApkShadow.Com.url": 114, "Downloaded From ApkShadow.com.txt": 1047, "Headspace Meditation v3.5.3[Subscribed][ApkShadow].apk": 38949128}
创建时间: 2019-06-23 13:24:33 大小:37.15 MB 文件数量:3 热度:7 最近下载:2022-04-14 06:10:16
    ... }, "Sample": {"ross.noble.the.headspace.cowboy.tour.one.dvdrip.xvid ... 15000000, "ross.noble.the.headspace.cowboy.tour.one.dvdrip.xvid ... 15000000, "ross.noble.the.headspace.cowboy.tour.one.dvdrip.xvid ... 15000000, "ross.noble.the.headspace.cowboy.tour.one.dvdrip.xvid ...
创建时间: 2019-10-18 12:54:36 大小:360.2 MB 文件数量:32 热度:7 最近下载:2025-09-19 01:29:06
    ... }, "Sample": {"ross.noble.the.headspace.cowboy.sit.down.tour.dvdrip ... 15000000, "ross.noble.the.headspace.cowboy.sit.down.tour.dvdrip ... 15000000, "ross.noble.the.headspace.cowboy.sit.down.tour.dvdrip ... 15000000, "ross.noble.the.headspace.cowboy.sit.down.tour.dvdrip ...
创建时间: 2020-04-12 20:05:49 大小:353.7 MB 文件数量:32 热度:7 最近下载:2025-09-18 22:53:09
    ... srt": 23253, "29_Vietnamese.srt": 27594}, "Headspace.Guide.To.Meditation.S01E02.WEBRip ... ": 20545, "29_Vietnamese.srt": 24895}, "Headspace.Guide.To.Meditation.S01E03.WEBRip ... srt": 27814, "29_Vietnamese.srt": 33117}}, "Headspace.Guide.To.Meditation.S01E01.WEBRip ...
创建时间: 2021-01-06 14:47:18 大小:1.5 GB 文件数量:248 热度:7 最近下载:2025-08-29 19:17:05
    ... GalaxyTV.mkv": 183730099, "Headspace.Guide.to.Meditation.S01E02. ... GalaxyTV.mkv": 141745458, "Headspace.Guide.to.Meditation.S01E03. ... GalaxyTV.mkv": 114523991, "Headspace.Guide.to.Meditation.S01E04. ... GalaxyTV.mkv": 100499582, "Headspace.Guide.to.Meditation.S01E05. ...
创建时间: 2021-01-31 13:56:03 大小:1.11 GB 文件数量:9 热度:7 最近下载:2025-08-29 19:17:05
    ... .mp4": 817134980, "Headspace. rukovodstvo po meditacii_S1E2.mp4": 782308127, "Headspace. rukovodstvo po meditacii_S1E3 ... .mp4": 725901355, "Headspace. rukovodstvo po meditacii_S1E4 ...
创建时间: 2021-02-15 02:24:32 大小:5.92 GB 文件数量:8 热度:7 最近下载:2025-03-29 01:27:02
    ... 이 필요할 때 Headspace.Guide.to.Meditation.S01E01.2Audio ... 이 필요할 때 Headspace.Guide.to.Meditation.S01E01.2Audio ... 이 필요할 때 Headspace.Guide.to.Meditation.S01E02.2Audio ... 이 필요할 때 Headspace.Guide.to.Meditation.S01E02.2Audio ... 이 필요할 때 Headspace.Guide.to.Meditation.S01E03.2Audio ...
创建时间: 2021-04-28 22:23:36 大小:9.72 GB 文件数量:17 热度:7 最近下载:2025-08-29 19:17:02
    ... , and Sky 1024.mp4": 159438824}}, "headspace Focus (08-2021).nfo": 984 ...
创建时间: 2021-08-24 11:25:20 大小:10.28 GB 文件数量:238 热度:7 最近下载:2025-02-20 14:39:04
    {"RARBG.txt": 30, "RARBG_DO_NOT_MIRROR.exe": 99, "Ted.Lasso.S02E07.Headspace.1080p.ATVP.WEB-DL.DDP5.1.H.264-NTb.mkv": 2896148442}
创建时间: 2021-09-10 07:29:00 大小:2.7 GB 文件数量:3 热度:7 最近下载:2025-01-05 02:04:02
    {"Importante Leeme!.vbs": 213, "Descargar Películas, Series y Animes...url": 50, "Guía.Headspace.para.la.meditación.1x07.Dual.720p-lat.mkv": 195538215}
创建时间: 2022-07-01 10:53:01 大小:186.48 MB 文件数量:3 热度:7 最近下载:2025-09-18 17:37:07
    ... .mp3": 19033920, "VA - The Disco Headspace (2022).jpg": 38061, "VA - The ... Disco Headspace (2022).txt": 4099, "006. Viola ...
创建时间: 2022-09-09 21:12:59 大小:1.69 GB 文件数量:127 热度:7 最近下载:2025-01-20 03:13:10
    {"Artwork": {"box1.png": 145857190, "box2.png": 19316597}, "folder.jpg": 39255, "foo_dr.txt": 1429, "lineage.txt": 577, "02 - Ride.flac": 267972640, "09 - Namaste.flac": 303238230, "06 - Godspeed.flac": 279559095, "07 - Dreaming.flac": 402247294, "11 - ...
创建时间: 2022-09-28 22:07:17 大小:3.12 GB 文件数量:17 热度:7 最近下载:2025-08-22 06:08:02
    {"Importante Leeme!.vbs": 213, "Descargar Películas, Series y Animes...url": 50, "Guía.Headspace.para.la.meditación.1x01.Dual.720p-lat.mkv": 224436971}
创建时间: 2022-10-18 23:45:35 大小:214.04 MB 文件数量:3 热度:7 最近下载:2025-09-20 22:12:01
    {"Importante Leeme!.vbs": 213, "Descargar Películas, Series y Animes...url": 50, "Guía.Headspace.para.la.meditación.1x02.Dual.720p-lat.mkv": 227794949}
创建时间: 2022-11-19 00:01:12 大小:217.24 MB 文件数量:3 热度:7 最近下载:2025-09-20 22:12:01
    {".pad": {"231699": 231699, "306399": 306399, "2096771": 2096771}, "release.manifest": 381, "com.headspace.headspacexr": {"main.512.com.headspace.headspacexr.obb": 1243304737}, "com.headspace.headspacexr.apk": 234649325}
创建时间: 2024-07-27 17:00:00 大小:1.38 GB 文件数量:6 热度:7 最近下载:2025-10-14 11:04:02